createdAt,value
2022-08-25T00:00:22.546Z,19.42
2022-08-25T00:02:55.417Z,19.22
2022-08-25T00:05:32.520Z,19.29
2022-08-25T00:08:06.192Z,18.99
2022-08-25T00:10:39.046Z,19.03
2022-08-25T00:13:08.913Z,18.99
2022-08-25T00:15:38.501Z,19.20
2022-08-25T00:18:11.508Z,18.92
2022-08-25T00:20:49.445Z,19.03
2022-08-25T00:23:19.268Z,18.81
2022-08-25T00:25:47.924Z,18.95
2022-08-25T00:28:17.003Z,18.95
2022-08-25T00:30:45.938Z,18.64
2022-08-25T00:33:14.902Z,18.63
2022-08-25T00:35:45.268Z,18.82
2022-08-25T00:38:14.227Z,18.68
2022-08-25T00:40:42.927Z,18.45
2022-08-25T00:43:12.501Z,18.44
2022-08-25T00:45:40.877Z,17.98
2022-08-25T00:48:09.095Z,18.70
2022-08-25T00:50:37.564Z,18.43
2022-08-25T00:53:07.604Z,18.62
2022-08-25T00:55:40.179Z,18.55
2022-08-25T00:58:25.146Z,18.53
2022-08-25T01:00:57.706Z,18.52
2022-08-25T01:03:33.108Z,18.45
2022-08-25T01:06:04.985Z,18.35
2022-08-25T01:08:34.565Z,18.30
2022-08-25T01:11:07.570Z,18.23
2022-08-25T01:13:48.371Z,18.21
2022-08-25T01:16:17.713Z,18.21
2022-08-25T01:18:53.731Z,18.03
2022-08-25T01:21:26.228Z,17.97
2022-08-25T01:23:58.480Z,18.18
2022-08-25T01:26:31.886Z,18.18
2022-08-25T01:29:21.245Z,17.74
2022-08-25T01:31:59.095Z,18.18
2022-08-25T01:34:34.419Z,17.95
2022-08-25T01:37:04.363Z,18.12
2022-08-25T01:39:34.217Z,17.80
2022-08-25T01:42:10.391Z,18.19
2022-08-25T01:44:42.390Z,17.94
2022-08-25T01:47:11.270Z,18.14
2022-08-25T01:49:39.406Z,17.81
2022-08-25T01:52:27.977Z,18.03
2022-08-25T01:54:56.180Z,17.86
2022-08-25T01:57:24.700Z,17.97
2022-08-25T01:59:52.897Z,17.85
2022-08-25T02:02:21.174Z,17.91
2022-08-25T02:04:49.579Z,17.92
2022-08-25T02:07:19.424Z,17.87
2022-08-25T02:09:48.088Z,17.62
2022-08-25T02:12:16.507Z,17.86
2022-08-25T02:14:44.597Z,17.82
2022-08-25T02:17:13.053Z,17.69
2022-08-25T02:19:41.191Z,17.61
2022-08-25T02:22:11.927Z,17.89
2022-08-25T02:24:40.483Z,17.86
2022-08-25T02:27:10.315Z,17.58
2022-08-25T02:29:38.322Z,17.82
2022-08-25T02:32:07.214Z,17.80
2022-08-25T02:34:35.728Z,17.79
2022-08-25T02:37:03.850Z,17.51
2022-08-25T02:39:31.952Z,17.49
2022-08-25T02:42:00.128Z,17.56
2022-08-25T02:44:28.188Z,17.72
2022-08-25T02:46:56.685Z,17.72
2022-08-25T02:49:25.130Z,17.70
2022-08-25T02:51:54.964Z,17.56
2022-08-25T02:54:23.499Z,17.52
2022-08-25T02:56:51.733Z,17.34
2022-08-25T02:59:20.093Z,17.37
2022-08-25T03:01:48.860Z,17.04
2022-08-25T03:04:17.768Z,17.25
2022-08-25T03:06:46.902Z,17.17
2022-08-25T03:09:16.829Z,16.82
2022-08-25T03:11:47.132Z,17.06
2022-08-25T03:14:15.763Z,16.80
2022-08-25T03:16:46.265Z,16.66
2022-08-25T03:19:15.056Z,16.59
2022-08-25T03:21:43.172Z,16.91
2022-08-25T03:24:11.487Z,16.85
2022-08-25T03:26:56.031Z,16.82
2022-08-25T03:29:28.349Z,16.74
2022-08-25T03:31:58.423Z,16.72
2022-08-25T03:34:30.239Z,16.70
2022-08-25T03:36:59.307Z,16.76
2022-08-25T03:39:29.177Z,16.75
2022-08-25T03:41:57.438Z,16.76
2022-08-25T03:44:25.628Z,16.78
2022-08-25T03:46:53.749Z,16.74
2022-08-25T03:49:24.684Z,16.81
2022-08-25T03:51:55.185Z,16.86
2022-08-25T03:54:26.228Z,16.86
2022-08-25T03:56:55.048Z,16.88
2022-08-25T03:59:23.236Z,16.79
2022-08-25T04:01:55.080Z,16.93
2022-08-25T04:04:24.237Z,16.74
2022-08-25T04:06:53.353Z,17.05
2022-08-25T04:09:21.417Z,17.13
2022-08-25T04:11:53.150Z,17.19
2022-08-25T04:14:23.828Z,17.25
2022-08-25T04:16:53.295Z,17.36
2022-08-25T04:19:22.155Z,17.42
2022-08-25T04:21:50.371Z,16.72
2022-08-25T04:24:19.783Z,17.47
2022-08-25T04:26:51.578Z,17.61
2022-08-25T04:29:23.701Z,17.72
2022-08-25T04:31:54.710Z,17.83
2022-08-25T04:34:30.480Z,17.88
2022-08-25T04:37:03.446Z,18.05
2022-08-25T04:39:32.264Z,18.12
2022-08-25T04:42:01.096Z,18.19
2022-08-25T04:44:30.816Z,18.35
2022-08-25T04:47:00.454Z,18.22
2022-08-25T04:49:28.918Z,18.66
2022-08-25T04:51:57.756Z,19.01
2022-08-25T04:54:26.016Z,19.33
2022-08-25T04:56:58.741Z,19.70
2022-08-25T04:59:29.997Z,19.96
2022-08-25T05:02:03.323Z,20.13
2022-08-25T05:04:34.330Z,19.92
2022-08-25T05:07:03.101Z,20.50
2022-08-25T05:09:32.513Z,20.67
2022-08-25T05:12:05.425Z,20.47
2022-08-25T05:14:35.140Z,21.02
2022-08-25T05:17:03.497Z,21.24
2022-08-25T05:19:31.812Z,21.51
2022-08-25T05:22:00.108Z,21.33
2022-08-25T05:24:28.305Z,21.79
2022-08-25T05:26:57.451Z,22.06
2022-08-25T05:29:27.280Z,22.19
2022-08-25T05:31:55.480Z,22.41
2022-08-25T05:34:24.981Z,22.54
2022-08-25T05:36:53.173Z,22.78
2022-08-25T05:39:21.272Z,23.00
2022-08-25T05:41:49.549Z,23.30
2022-08-25T05:44:20.824Z,23.37
2022-08-25T05:46:50.072Z,23.46
2022-08-25T05:49:18.322Z,23.66
2022-08-25T05:51:46.653Z,23.92
2022-08-25T05:54:14.931Z,23.99
2022-08-25T05:56:43.113Z,24.07
2022-08-25T05:59:11.260Z,24.10
2022-08-25T06:01:58.282Z,24.32
2022-08-25T06:04:26.489Z,24.22
2022-08-25T06:06:55.751Z,24.26
2022-08-25T06:09:24.537Z,24.43
2022-08-25T06:11:55.139Z,24.20
2022-08-25T06:14:25.406Z,24.61
2022-08-25T06:16:55.409Z,24.34
2022-08-25T06:19:24.883Z,24.81
2022-08-25T06:21:58.676Z,24.63
2022-08-25T06:24:28.709Z,24.86
2022-08-25T06:26:57.835Z,24.95
2022-08-25T06:29:27.170Z,24.93
2022-08-25T06:31:55.441Z,25.31
2022-08-25T06:50:38.549Z,26.99
2022-08-25T06:53:07.453Z,26.82
2022-08-25T06:55:36.291Z,27.23
2022-08-25T06:58:05.855Z,27.59
2022-08-25T07:00:38.977Z,27.54
2022-08-25T07:03:07.197Z,27.36
2022-08-25T07:05:43.414Z,27.61
2022-08-25T07:08:12.134Z,27.77
2022-08-25T07:10:40.654Z,27.47
2022-08-25T07:13:08.628Z,27.89
2022-08-25T07:15:44.386Z,27.95
2022-08-25T07:18:13.334Z,27.71
2022-08-25T07:20:41.710Z,28.17
2022-08-25T07:23:09.985Z,28.41
2022-08-25T07:25:38.681Z,28.96
2022-08-25T07:28:06.956Z,28.90
2022-08-25T07:30:37.567Z,29.45
2022-08-25T07:33:06.785Z,29.91
2022-08-25T07:35:39.078Z,30.26
2022-08-25T07:38:13.016Z,29.49
2022-08-25T07:40:43.952Z,29.77
2022-08-25T07:43:13.998Z,29.56
2022-08-25T07:45:49.379Z,29.46
2022-08-25T07:48:20.198Z,29.97
2022-08-25T07:50:49.569Z,30.61
2022-08-25T07:53:18.267Z,30.71
2022-08-25T07:55:47.383Z,30.69
2022-08-25T07:58:16.039Z,30.64
2022-08-25T08:00:48.860Z,30.46
2022-08-25T08:03:42.245Z,30.44
2022-08-25T08:06:14.315Z,31.03
2022-08-25T08:08:45.865Z,30.91
2022-08-25T08:11:18.040Z,30.34
2022-08-25T08:13:48.550Z,30.95
2022-08-25T08:16:20.583Z,31.11
2022-08-25T08:18:48.997Z,31.37
2022-08-25T08:21:26.849Z,31.25
2022-08-25T08:23:59.085Z,30.88
2022-08-25T08:26:48.343Z,30.71
2022-08-25T08:29:16.950Z,31.33
2022-08-25T08:31:48.476Z,30.85
2022-08-25T08:34:17.405Z,31.35
2022-08-25T08:36:45.584Z,31.51
2022-08-25T08:39:13.975Z,32.07
2022-08-25T08:42:22.563Z,31.84
2022-08-25T08:45:43.821Z,32.08
2022-08-25T08:48:52.179Z,31.32
2022-08-25T08:51:25.513Z,31.76
2022-08-25T08:54:18.897Z,31.22
2022-08-25T08:57:08.237Z,31.10
2022-08-25T09:00:00.870Z,31.59
2022-08-25T09:02:52.079Z,32.55
2022-08-25T09:05:26.719Z,31.74
2022-08-25T09:08:03.502Z,31.55
2022-08-25T09:10:47.096Z,31.78
2022-08-25T09:13:51.262Z,31.93
2022-08-25T09:16:58.018Z,31.87
2022-08-25T09:20:23.793Z,31.89
2022-08-25T09:23:13.223Z,32.35
2022-08-25T09:26:27.586Z,32.37
2022-08-25T09:29:19.883Z,33.07
2022-08-25T09:31:49.682Z,33.11
2022-08-25T09:34:24.884Z,32.91
2022-08-25T09:36:53.622Z,32.98
2022-08-25T09:39:22.245Z,33.37
2022-08-25T09:42:00.545Z,31.62
2022-08-25T09:44:44.192Z,32.66
2022-08-25T09:47:18.404Z,32.27
2022-08-25T09:49:49.543Z,32.50
2022-08-25T09:52:29.199Z,32.39
2022-08-25T09:55:30.025Z,32.05
2022-08-25T09:58:11.652Z,32.17
2022-08-25T10:01:01.545Z,32.33
2022-08-25T10:03:30.352Z,32.80
2022-08-25T10:06:13.682Z,31.92
2022-08-25T10:08:58.989Z,32.63
2022-08-25T10:11:38.322Z,31.82
2022-08-25T10:14:35.260Z,32.51
2022-08-25T10:17:27.602Z,31.73
2022-08-25T10:20:35.179Z,32.60
2022-08-25T10:23:13.857Z,32.63
2022-08-25T10:25:59.404Z,32.37
2022-08-25T10:28:49.613Z,32.35
2022-08-25T10:31:24.895Z,32.82
2022-08-25T10:34:36.056Z,32.91
2022-08-25T10:37:18.277Z,32.91
2022-08-25T10:39:59.551Z,32.69
2022-08-25T10:43:17.150Z,32.86
2022-08-25T10:46:08.722Z,33.00
2022-08-25T10:48:52.788Z,32.58
2022-08-25T10:51:54.285Z,32.61
2022-08-25T10:54:46.970Z,32.73
2022-08-25T10:58:14.761Z,33.30
2022-08-25T11:01:28.871Z,33.04
2022-08-25T11:04:50.578Z,33.21
2022-08-25T11:07:46.345Z,33.33
2022-08-25T11:11:09.333Z,33.99
2022-08-25T11:14:01.615Z,33.16
2022-08-25T11:16:43.707Z,33.73
2022-08-25T11:19:35.271Z,33.68
2022-08-25T11:22:24.313Z,33.19
2022-08-25T11:25:18.922Z,33.44
2022-08-25T11:28:29.843Z,33.68
2022-08-25T11:31:02.135Z,34.40
2022-08-25T11:33:31.855Z,33.81
2022-08-25T11:36:23.697Z,33.01
2022-08-25T11:39:23.178Z,33.98
2022-08-25T11:42:01.666Z,33.27
2022-08-25T11:45:12.130Z,32.90
2022-08-25T11:48:28.397Z,33.29
2022-08-25T11:51:07.574Z,34.11
2022-08-25T11:53:44.472Z,34.07
2022-08-25T11:56:33.314Z,34.34
2022-08-25T11:59:04.580Z,33.40
2022-08-25T12:01:55.314Z,33.49
2022-08-25T12:04:44.983Z,33.50
2022-08-25T12:07:22.030Z,33.55
2022-08-25T12:09:55.975Z,33.83
2022-08-25T12:12:32.459Z,33.51
2022-08-25T12:15:30.243Z,34.49
2022-08-25T12:18:45.816Z,34.17
2022-08-25T12:21:28.918Z,34.61
2022-08-25T12:24:13.227Z,33.51
2022-08-25T12:26:58.578Z,33.97
2022-08-25T12:29:29.525Z,34.48
2022-08-25T12:32:04.544Z,33.73
2022-08-25T12:35:11.456Z,34.93
2022-08-25T12:38:04.925Z,34.97
2022-08-25T12:40:48.141Z,34.68
2022-08-25T12:43:40.435Z,34.61
2022-08-25T12:46:30.711Z,33.75
2022-08-25T12:49:33.441Z,34.21
2022-08-25T12:52:28.071Z,33.87
2022-08-25T12:55:03.854Z,34.45
2022-08-25T12:57:58.063Z,33.44
2022-08-25T13:00:36.634Z,33.52
2022-08-25T13:04:11.611Z,34.04
2022-08-25T13:07:05.233Z,34.53
2022-08-25T13:10:11.350Z,33.97
2022-08-25T13:13:13.455Z,33.95
2022-08-25T13:15:57.485Z,34.45
2022-08-25T13:18:30.834Z,34.16
2022-08-25T13:21:24.804Z,33.47
2022-08-25T13:24:01.386Z,34.31
2022-08-25T13:26:48.385Z,34.38
2022-08-25T13:29:24.793Z,33.87
2022-08-25T13:32:01.580Z,34.64
2022-08-25T13:34:39.011Z,33.37
2022-08-25T13:37:30.565Z,34.28
2022-08-25T13:40:24.553Z,34.42
2022-08-25T13:43:01.206Z,34.67
2022-08-25T13:45:45.038Z,35.09
2022-08-25T13:48:31.418Z,34.22
2022-08-25T13:51:31.254Z,33.95
2022-08-25T13:54:09.867Z,34.22
2022-08-25T13:56:42.742Z,34.49
2022-08-25T13:59:31.216Z,35.25
2022-08-25T14:02:00.217Z,34.88
2022-08-25T14:04:53.896Z,35.15
2022-08-25T14:07:25.991Z,35.68
2022-08-25T14:10:43.047Z,34.75
2022-08-25T14:13:34.997Z,34.44
2022-08-25T14:16:25.470Z,34.02
2022-08-25T14:18:59.436Z,34.50
2022-08-25T14:21:31.623Z,34.79
2022-08-25T14:24:01.055Z,34.31
2022-08-25T14:26:29.207Z,34.42
2022-08-25T14:28:59.666Z,33.70
2022-08-25T14:31:36.305Z,34.55
2022-08-25T14:34:10.174Z,33.05
2022-08-25T14:36:43.036Z,33.51
2022-08-25T14:39:13.743Z,33.78
2022-08-25T14:41:45.332Z,34.10
2022-08-25T14:44:22.655Z,33.80
2022-08-25T14:46:55.378Z,34.27
2022-08-25T14:49:34.030Z,34.96
2022-08-25T14:52:16.668Z,34.39
2022-08-25T14:54:45.259Z,34.27
2022-08-25T14:57:14.508Z,34.87
2022-08-25T14:59:43.391Z,34.37
2022-08-25T15:02:19.959Z,34.53
2022-08-25T15:04:57.606Z,34.53
2022-08-25T15:07:45.520Z,33.86
2022-08-25T15:10:13.930Z,33.84
2022-08-25T15:12:47.884Z,32.92
2022-08-25T15:15:16.665Z,33.72
2022-08-25T15:17:47.386Z,33.22
2022-08-25T15:20:19.456Z,32.84
2022-08-25T15:22:48.407Z,32.70
2022-08-25T15:25:17.051Z,32.83
2022-08-25T15:27:46.272Z,33.14
2022-08-25T15:30:15.423Z,32.89
2022-08-25T15:32:44.613Z,32.51
2022-08-25T15:35:17.223Z,32.78
2022-08-25T15:37:48.314Z,32.27
2022-08-25T15:40:16.593Z,32.60
2022-08-25T15:42:46.027Z,32.50
2022-08-25T15:45:14.657Z,32.25
2022-08-25T15:47:42.773Z,32.68
2022-08-25T15:50:16.704Z,32.31
2022-08-25T15:52:47.409Z,31.95
2022-08-25T15:55:17.985Z,31.95
2022-08-25T15:57:49.627Z,31.90
2022-08-25T16:00:21.552Z,31.90
2022-08-25T16:02:50.095Z,31.73
2022-08-25T16:05:22.497Z,31.64
2022-08-25T16:07:54.445Z,31.38
2022-08-25T16:10:22.712Z,31.51
2022-08-25T16:12:51.768Z,31.31
2022-08-25T16:15:23.947Z,31.28
2022-08-25T16:17:58.961Z,31.38
2022-08-25T16:20:33.491Z,31.23
2022-08-25T16:23:03.114Z,31.03
2022-08-25T16:25:32.524Z,31.16
2022-08-25T16:28:01.923Z,30.77
2022-08-25T16:30:31.595Z,30.82
2022-08-25T16:33:02.584Z,30.76
2022-08-25T16:35:30.729Z,30.57
2022-08-25T16:37:58.905Z,30.26
2022-08-25T16:40:30.196Z,30.40
2022-08-25T16:42:59.446Z,30.29
2022-08-25T16:45:28.553Z,30.17
2022-08-25T16:47:59.093Z,29.96
2022-08-25T16:50:27.641Z,30.17
2022-08-25T16:53:15.584Z,29.82
2022-08-25T16:55:44.757Z,29.20
2022-08-25T16:58:16.135Z,29.70
2022-08-25T17:00:44.962Z,29.52
2022-08-25T17:03:13.742Z,29.26
2022-08-25T17:05:43.272Z,29.12
2022-08-25T17:08:30.699Z,28.92
2022-08-25T17:11:19.250Z,28.65
2022-08-25T17:13:52.287Z,28.27
2022-08-25T17:16:26.408Z,28.23
2022-08-25T17:18:55.817Z,28.04
2022-08-25T17:21:27.049Z,27.74
2022-08-25T17:23:58.129Z,27.59
2022-08-25T17:26:27.902Z,27.36
2022-08-25T17:29:01.772Z,26.96
2022-08-25T17:31:30.844Z,26.99
2022-08-25T17:33:59.551Z,26.85
2022-08-25T17:36:28.343Z,26.27
2022-08-25T17:39:00.381Z,26.57
2022-08-25T17:41:30.917Z,26.49
2022-08-25T17:43:59.663Z,26.30
2022-08-25T17:46:29.363Z,26.05
2022-08-25T17:48:57.634Z,25.97
2022-08-25T17:51:31.550Z,25.88
2022-08-25T17:54:00.556Z,25.53
2022-08-25T17:56:29.212Z,25.59
2022-08-25T17:58:58.220Z,25.50
2022-08-25T18:01:40.132Z,25.44
2022-08-25T18:04:17.882Z,25.35
2022-08-25T18:06:56.565Z,25.21
2022-08-25T18:09:25.465Z,25.05
2022-08-25T18:11:54.084Z,24.91
2022-08-25T18:14:25.417Z,24.41
2022-08-25T18:16:54.674Z,24.43
2022-08-25T18:19:23.359Z,24.63
2022-08-25T18:21:52.386Z,24.31
2022-08-25T18:24:21.285Z,24.48
2022-08-25T18:26:51.958Z,24.39
2022-08-25T18:29:21.203Z,24.26
2022-08-25T18:31:51.884Z,23.94
2022-08-25T18:34:22.390Z,24.08
2022-08-25T18:36:51.477Z,23.79
2022-08-25T18:39:39.696Z,23.94
2022-08-25T18:42:09.032Z,23.85
2022-08-25T18:44:37.446Z,23.63
2022-08-25T18:47:07.510Z,23.59
2022-08-25T18:49:37.742Z,23.48
2022-08-25T18:52:06.364Z,23.34
2022-08-25T18:54:36.153Z,22.96
2022-08-25T18:57:08.164Z,23.15
2022-08-25T18:59:37.597Z,23.00
2022-08-25T19:02:07.915Z,22.98
2022-08-25T19:04:37.831Z,22.81
2022-08-25T19:07:07.940Z,22.36
2022-08-25T19:09:37.240Z,22.15
2022-08-25T19:12:06.097Z,22.02
2022-08-25T19:14:40.995Z,22.16
2022-08-25T19:17:10.049Z,22.01
2022-08-25T19:19:38.903Z,22.05
2022-08-25T19:22:26.601Z,21.63
2022-08-25T19:24:58.404Z,21.45
2022-08-25T19:27:28.797Z,21.42
2022-08-25T19:29:59.770Z,21.55
2022-08-25T19:32:30.391Z,21.43
2022-08-25T19:34:59.173Z,21.40
2022-08-25T19:37:29.786Z,21.36
2022-08-25T19:39:59.493Z,21.35
2022-08-25T19:42:35.245Z,21.27
2022-08-25T19:45:10.701Z,20.90
2022-08-25T19:47:42.118Z,21.11
2022-08-25T19:50:16.623Z,21.14
2022-08-25T19:52:47.014Z,21.06
2022-08-25T19:55:20.079Z,20.75
2022-08-25T19:57:49.030Z,20.89
2022-08-25T20:00:25.976Z,20.83
2022-08-25T20:02:56.568Z,20.82
2022-08-25T20:05:25.595Z,20.79
2022-08-25T20:07:56.923Z,20.85
2022-08-25T20:10:29.983Z,20.86
2022-08-25T20:12:59.635Z,20.79
2022-08-25T20:15:29.120Z,20.70
2022-08-25T20:18:08.199Z,20.57
2022-08-25T20:20:37.372Z,20.14
2022-08-25T20:23:27.962Z,20.10
2022-08-25T20:25:57.156Z,20.25
2022-08-25T20:28:26.294Z,20.19
2022-08-25T20:30:57.176Z,20.12
2022-08-25T20:33:25.574Z,20.05
2022-08-25T20:35:54.662Z,20.01
2022-08-25T20:38:24.594Z,19.97
2022-08-25T20:40:53.125Z,19.85
2022-08-25T20:43:21.747Z,19.85
2022-08-25T20:45:59.988Z,19.82
2022-08-25T20:48:29.517Z,19.74
2022-08-25T20:50:58.260Z,19.67
2022-08-25T20:53:27.611Z,19.45
2022-08-25T20:55:56.173Z,19.56
2022-08-25T20:58:25.017Z,19.40
2022-08-25T21:00:55.467Z,19.45
2022-08-25T21:03:24.439Z,19.37
2022-08-25T21:05:54.045Z,19.34
2022-08-25T21:08:23.637Z,18.65
2022-08-25T21:10:52.170Z,19.36
2022-08-25T21:13:20.325Z,19.07
2022-08-25T21:15:51.111Z,18.96
2022-08-25T21:18:19.288Z,19.00
2022-08-25T21:20:47.617Z,18.87
2022-08-25T21:23:16.564Z,18.81
2022-08-25T21:25:45.424Z,18.77
2022-08-25T21:28:15.196Z,18.75
2022-08-25T21:30:47.132Z,18.57
2022-08-25T21:33:15.829Z,18.21
2022-08-25T21:35:44.296Z,18.52
2022-08-25T21:38:15.992Z,18.45
2022-08-25T21:40:45.050Z,18.32
2022-08-25T21:43:13.701Z,18.10
2022-08-25T21:45:46.595Z,18.18
2022-08-25T21:48:17.169Z,17.65
2022-08-25T21:50:46.656Z,18.08
2022-08-25T21:53:15.264Z,18.04
2022-08-25T21:55:44.740Z,18.02
2022-08-25T21:58:15.318Z,17.99
2022-08-25T22:00:45.335Z,17.91
2022-08-25T22:03:13.827Z,17.95
2022-08-25T22:05:43.286Z,17.88
2022-08-25T22:08:14.249Z,17.82
2022-08-25T22:10:45.703Z,17.82
2022-08-25T22:13:13.742Z,17.78
2022-08-25T22:15:41.922Z,17.71
2022-08-25T22:18:10.154Z,17.72
2022-08-25T22:20:39.230Z,17.68
2022-08-25T22:23:10.265Z,17.43
2022-08-25T22:25:48.735Z,17.42
2022-08-25T22:28:17.196Z,17.47
2022-08-25T22:30:45.322Z,17.49
2022-08-25T22:33:13.519Z,17.45
2022-08-25T22:35:42.136Z,16.92
2022-08-25T22:38:12.402Z,17.31
2022-08-25T22:40:41.578Z,17.24
2022-08-25T22:43:10.942Z,16.93
2022-08-25T22:45:39.289Z,17.11
2022-08-25T22:48:08.248Z,17.08
2022-08-25T22:50:37.673Z,16.98
2022-08-25T22:53:05.832Z,16.98
2022-08-25T22:55:34.228Z,16.74
2022-08-25T22:58:02.410Z,16.84
2022-08-25T23:00:31.713Z,16.62
2022-08-25T23:02:59.812Z,16.56
2022-08-25T23:05:28.010Z,16.73
2022-08-25T23:07:56.095Z,16.53
2022-08-25T23:10:25.945Z,16.72
2022-08-25T23:12:54.340Z,16.73
2022-08-25T23:15:22.697Z,16.66
2022-08-25T23:17:51.634Z,16.21
2022-08-25T23:20:44.741Z,16.32
2022-08-25T23:23:14.326Z,16.27
2022-08-25T23:25:42.663Z,16.32
2022-08-25T23:28:10.776Z,16.02
2022-08-25T23:30:42.749Z,16.13
2022-08-25T23:33:18.870Z,16.23
2022-08-25T23:35:57.172Z,16.19
2022-08-25T23:38:26.160Z,16.14
2022-08-25T23:40:57.762Z,16.18
2022-08-25T23:43:26.555Z,15.83
2022-08-25T23:45:55.648Z,15.81
2022-08-25T23:48:25.273Z,16.03
2022-08-25T23:50:53.985Z,15.81
2022-08-25T23:53:22.784Z,15.96
2022-08-25T23:55:53.981Z,15.91
2022-08-25T23:58:23.664Z,15.71
